This is the latest recevied weather packets stored in our database for station/object F4IEI-10. If no packets are shown the sender has not sent any weather packets the latest 10 day(s).
| Time | Temp. | Humidity | Pressure | Rain* | Wind** | Luminosity | Snow |
|---|---|---|---|---|---|---|---|
| 1777381104 | 18.33° C | 56% | 1017.8 hPa | - | - | - | - |
| 1777380211 | 18.33° C | 56% | 1017.7 hPa | - | - | - | - |
| 1777379311 | 17.78° C | 56% | 1017.9 hPa | - | - | - | - |
| 1777378404 | 17.78° C | 57% | 1017.8 hPa | - | - | - | - |
| 1777377511 | 17.22° C | 59% | 1018 hPa | - | - | - | - |
| 1777376604 | 17.22° C | 59% | 1018.1 hPa | - | - | - | - |
| 1777375711 | 16.11° C | 61% | 1018.1 hPa | - | - | - | - |
| 1777374804 | 15.56° C | 60% | 1018.2 hPa | - | - | - | - |
| 1777373911 | 15.56° C | 60% | 1018.4 hPa | - | - | - | - |
| 1777373004 | 16.11° C | 59% | 1018.4 hPa | - | - | - | - |
| 1777372105 | 15° C | 61% | 1018.5 hPa | - | - | - | - |
| 1777371203 | 15.56° C | 60% | 1018.5 hPa | - | - | - | - |
| 1777370310 | 15° C | 61% | 1018.6 hPa | - | - | - | - |
| 1777369403 | 15° C | 60% | 1018.7 hPa | - | - | - | - |
| 1777368503 | 15.56° C | 60% | 1018.9 hPa | - | - | - | - |
| 1777367603 | 15.56° C | 62% | 1018.9 hPa | - | - | - | - |
| 1777366703 | 15° C | 61% | 1018.8 hPa | - | - | - | - |
| 1777365803 | 14.44° C | 62% | 1018.8 hPa | - | - | - | - |
| 1777364902 | 13.33° C | 65% | 1018.8 hPa | - | - | - | - |
| 1777364002 | 11.67° C | 69% | 1018.7 hPa | - | - | - | - |
| 1777363102 | 11.67° C | 69% | 1018.7 hPa | - | - | - | - |
| 1777360405 | 11.67° C | 72% | 1018.5 hPa | - | - | - | - |
| 1777359505 | 10.56° C | 75% | 1018.6 hPa | - | - | - | - |
| 1777358605 | 9.44° C | 77% | 1018.8 hPa | - | - | - | - |
| 1777357705 | 8.89° C | 77% | 1018.5 hPa | - | - | - | - |
* Rain since midnight (hover to see other rain measurements)
** Current wind speed in m/s (hover to see current wind gust speed)